Time;durP1;ratioP1;P1;durP2;ratioP2;P2;SDS_P1;SDS_P2;PMS_P1;PMS_P2;Temp;Humidity;BMP_temperature;BMP_pressure;BME280_temperature;BME280_humidity;BME280_pressure;Samples;Min_cycle;Max_cycle;Signal;HPM_P1;HPM_P2
2021/03/11 00:02:05;;;;;;;45.65;33.25;;;;;;;;;;5111517;28;20204;-44
2021/03/11 00:04:31;;;;;;;50.13;33.20;;;;;;;;;;5111550;28;20174;-44
2021/03/11 00:06:56;;;;;;;48.50;34.57;;;;;;;;;;5111976;28;20180;-44
2021/03/11 00:09:21;;;;;;;50.67;34.60;;;;;;;;;;5110780;28;20255;-44
2021/03/11 00:11:46;;;;;;;45.33;32.20;;;;;;;;;;5100705;28;20189;-45
2021/03/11 00:14:11;;;;;;;48.73;33.77;;;;;;;;;;5111203;28;20543;-44
2021/03/11 00:16:36;;;;;;;45.10;32.00;;;;;;;;;;5111509;28;20182;-43
2021/03/11 00:19:02;;;;;;;47.08;32.33;;;;;;;;;;5110529;28;20197;-44
2021/03/11 00:21:27;;;;;;;46.53;33.40;;;;;;;;;;5111764;28;20186;-44
2021/03/11 00:23:52;;;;;;;42.47;31.98;;;;;;;;;;5111329;28;20251;-44
2021/03/11 00:26:17;;;;;;;42.27;30.60;;;;;;;;;;5111645;28;20162;-43
2021/03/11 00:28:42;;;;;;;51.00;33.03;;;;;;;;;;5108850;28;20178;-44
2021/03/11 00:31:07;;;;;;;45.45;32.20;;;;;;;;;;5111337;28;20722;-44
2021/03/11 00:33:33;;;;;;;46.97;31.60;;;;;;;;;;5111346;28;20184;-43
2021/03/11 00:35:58;;;;;;;42.95;30.40;;;;;;;;;;5110296;28;20182;-43
2021/03/11 00:38:23;;;;;;;43.57;31.17;;;;;;;;;;5109725;28;20606;-42
2021/03/11 00:40:48;;;;;;;43.22;30.77;;;;;;;;;;5111093;28;20263;-43
2021/03/11 00:43:14;;;;;;;43.37;30.77;;;;;;;;;;5110546;28;20759;-44
2021/03/11 00:45:39;;;;;;;44.90;29.90;;;;;;;;;;5110617;28;20189;-45
2021/03/11 00:48:05;;;;;;;41.47;28.97;;;;;;;;;;5110578;28;20235;-45
2021/03/11 00:50:30;;;;;;;41.33;29.93;;;;;;;;;;5111108;28;20188;-44
2021/03/11 00:52:55;;;;;;;41.80;29.10;;;;;;;;;;5110666;28;20256;-43
2021/03/11 00:55:21;;;;;;;43.97;30.37;;;;;;;;;;5110488;28;20586;-43
2021/03/11 00:57:46;;;;;;;41.07;29.93;;;;;;;;;;5110836;28;20169;-43
2021/03/11 01:00:13;;;;;;;45.33;31.87;;;;;;;;;;5108749;28;20228;-43
2021/03/11 01:02:38;;;;;;;41.07;29.70;;;;;;;;;;5110988;28;20643;-44
2021/03/11 01:05:04;;;;;;;41.50;29.43;;;;;;;;;;5110692;28;20630;-43
2021/03/11 01:07:29;;;;;;;37.00;27.50;;;;;;;;;;5114510;27;20173;-44
2021/03/11 01:09:54;;;;;;;44.07;30.87;;;;;;;;;;5112626;27;20223;-44
2021/03/11 01:12:20;;;;;;;40.30;30.47;;;;;;;;;;5109967;28;20271;-45
2021/03/11 01:14:45;;;;;;;42.33;29.27;;;;;;;;;;5108400;28;20181;-44
2021/03/11 01:17:10;;;;;;;44.60;31.53;;;;;;;;;;5109888;28;20297;-44
2021/03/11 01:19:36;;;;;;;43.40;28.90;;;;;;;;;;5108211;28;20231;-44
2021/03/11 01:22:01;;;;;;;39.67;28.73;;;;;;;;;;5120718;27;20814;-43
2021/03/11 01:24:26;;;;;;;41.73;31.00;;;;;;;;;;5108720;27;20170;-43
2021/03/11 01:26:51;;;;;;;41.43;28.60;;;;;;;;;;5109092;28;20170;-43
2021/03/11 01:29:17;;;;;;;42.93;30.13;;;;;;;;;;5109152;28;20178;-43
2021/03/11 01:31:42;;;;;;;38.10;28.45;;;;;;;;;;5110110;28;20257;-44
2021/03/11 01:34:07;;;;;;;38.83;29.80;;;;;;;;;;5109467;28;20604;-44
2021/03/11 01:36:32;;;;;;;39.17;29.63;;;;;;;;;;5109838;28;20262;-43
2021/03/11 01:38:59;;;;;;;39.92;28.30;;;;;;;;;;5109103;28;20202;-44
2021/03/11 01:41:24;;;;;;;36.63;28.00;;;;;;;;;;5109282;28;20197;-44
2021/03/11 01:43:49;;;;;;;40.67;28.85;;;;;;;;;;5107782;28;20604;-44
2021/03/11 01:46:14;;;;;;;41.77;28.87;;;;;;;;;;5109737;28;20228;-44
2021/03/11 01:48:39;;;;;;;37.63;27.67;;;;;;;;;;5109098;28;20613;-43
2021/03/11 01:51:05;;;;;;;42.63;29.27;;;;;;;;;;5109720;28;20184;-43
2021/03/11 01:53:30;;;;;;;40.20;27.20;;;;;;;;;;5101412;28;20245;-44
2021/03/11 01:55:56;;;;;;;36.47;27.33;;;;;;;;;;5108453;28;20200;-42
2021/03/11 01:58:21;;;;;;;36.77;27.27;;;;;;;;;;5108266;28;20201;-43
2021/03/11 02:00:46;;;;;;;38.73;25.87;;;;;;;;;;5108469;28;20178;-43
2021/03/11 02:03:11;;;;;;;39.42;28.05;;;;;;;;;;5109730;28;20186;-43
2021/03/11 02:05:37;;;;;;;40.67;28.30;;;;;;;;;;5109856;28;20727;-50
2021/03/11 02:08:02;;;;;;;39.42;27.65;;;;;;;;;;5108639;28;20177;-42
2021/03/11 02:10:27;;;;;;;39.10;27.67;;;;;;;;;;5109452;28;20175;-44
2021/03/11 02:12:52;;;;;;;41.43;28.37;;;;;;;;;;5108636;28;20184;-43
2021/03/11 02:15:22;;;;;;;37.75;27.58;;;;;;;;;;5108199;28;20354;-43
2021/03/11 02:17:57;;;;;;;37.20;26.93;;;;;;;;;;5106178;28;20185;-43
2021/03/11 02:20:41;;;;;;;41.50;29.20;;;;;;;;;;5090419;28;21181;-43
2021/03/11 02:23:06;;;;;;;39.70;28.23;;;;;;;;;;5101428;28;20698;-43
2021/03/11 02:25:41;;;;;;;42.53;27.10;;;;;;;;;;5109362;28;20699;-43
2021/03/11 02:28:21;;;;;;;36.80;26.13;;;;;;;;;;5107122;27;20174;-43
2021/03/11 02:30:46;;;;;;;37.67;28.90;;;;;;;;;;5108301;28;20664;-43
2021/03/11 02:33:12;;;;;;;42.10;28.10;;;;;;;;;;5109456;28;20580;-43
2021/03/11 02:35:39;;;;;;;41.93;29.13;;;;;;;;;;5108247;28;20191;-43
2021/03/11 02:38:05;;;;;;;37.20;28.37;;;;;;;;;;5108893;28;20595;-43
2021/03/11 02:40:31;;;;;;;40.03;27.87;;;;;;;;;;5108235;28;20627;-42
2021/03/11 02:42:58;;;;;;;38.90;29.00;;;;;;;;;;5108391;28;21172;-43
2021/03/11 02:45:24;;;;;;;37.13;26.20;;;;;;;;;;5108795;28;20607;-43
2021/03/11 02:47:50;;;;;;;42.47;27.60;;;;;;;;;;5107873;28;20585;-43
2021/03/11 02:50:15;;;;;;;42.53;29.80;;;;;;;;;;5108721;28;20605;-43
2021/03/11 02:52:41;;;;;;;36.40;27.10;;;;;;;;;;5109007;28;20173;-43
2021/03/11 02:55:06;;;;;;;36.30;27.07;;;;;;;;;;5108398;28;20227;-44
2021/03/11 02:57:32;;;;;;;41.83;29.73;;;;;;;;;;5108198;28;20189;-43
2021/03/11 02:59:58;;;;;;;41.67;29.00;;;;;;;;;;5106750;28;20212;-44
2021/03/11 03:02:24;;;;;;;41.00;30.60;;;;;;;;;;5109047;28;20591;-43
2021/03/11 03:04:52;;;;;;;37.80;27.00;;;;;;;;;;5109284;28;20575;-43
2021/03/11 03:07:18;;;;;;;38.33;26.67;;;;;;;;;;5108298;28;21601;-41
2021/03/11 03:09:44;;;;;;;37.27;26.50;;;;;;;;;;5108887;28;20600;-41
2021/03/11 03:12:09;;;;;;;37.50;27.40;;;;;;;;;;5106888;28;20179;-41
2021/03/11 03:14:36;;;;;;;36.33;25.30;;;;;;;;;;5107938;28;21158;-42
2021/03/11 03:17:01;;;;;;;38.80;26.40;;;;;;;;;;5107262;28;20174;-42
2021/03/11 03:19:27;;;;;;;35.73;26.17;;;;;;;;;;5104988;28;20650;-42
2021/03/11 03:21:52;;;;;;;33.47;23.90;;;;;;;;;;5106141;28;20219;-44
2021/03/11 03:24:19;;;;;;;34.20;25.20;;;;;;;;;;5107580;28;20178;-44
2021/03/11 03:26:44;;;;;;;34.80;25.63;;;;;;;;;;5108504;28;20209;-44
2021/03/11 03:29:09;;;;;;;39.23;26.90;;;;;;;;;;5100769;28;20643;-44
2021/03/11 03:31:35;;;;;;;34.10;25.30;;;;;;;;;;5108368;28;20215;-43
2021/03/11 03:34:00;;;;;;;33.80;25.60;;;;;;;;;;5108388;28;20176;-43
2021/03/11 03:36:25;;;;;;;38.23;27.40;;;;;;;;;;5108745;28;20277;-44
2021/03/11 03:38:51;;;;;;;37.70;26.93;;;;;;;;;;5106479;28;20209;-44
2021/03/11 03:41:17;;;;;;;38.77;26.50;;;;;;;;;;5101924;28;20261;-44
2021/03/11 03:43:44;;;;;;;33.77;24.93;;;;;;;;;;5101273;28;20625;-44
2021/03/11 03:46:10;;;;;;;37.87;27.93;;;;;;;;;;5107503;28;20604;-44
2021/03/11 03:48:42;;;;;;;35.20;25.57;;;;;;;;;;5108657;28;20596;-44
2021/03/11 03:51:07;;;;;;;34.37;26.87;;;;;;;;;;5107632;28;21417;-44
2021/03/11 03:53:39;;;;;;;35.40;27.43;;;;;;;;;;5107628;28;20653;-44
2021/03/11 03:56:07;;;;;;;33.87;25.37;;;;;;;;;;5108858;28;20249;-44
2021/03/11 03:58:33;;;;;;;30.37;23.10;;;;;;;;;;5118774;27;21131;-45
2021/03/11 04:00:58;;;;;;;32.40;24.43;;;;;;;;;;5111104;27;20740;-44
2021/03/11 04:03:24;;;;;;;33.90;24.80;;;;;;;;;;5112229;28;20616;-43
2021/03/11 04:05:49;;;;;;;34.03;25.83;;;;;;;;;;5111660;28;20196;-43
2021/03/11 04:08:15;;;;;;;34.50;24.10;;;;;;;;;;5111938;28;20543;-44
2021/03/11 04:10:41;;;;;;;35.50;25.63;;;;;;;;;;5111355;28;20235;-44
2021/03/11 04:13:06;;;;;;;34.67;25.87;;;;;;;;;;5110877;28;20589;-43
2021/03/11 04:15:32;;;;;;;35.70;25.83;;;;;;;;;;5103404;27;20630;-43
2021/03/11 04:17:57;;;;;;;35.80;26.07;;;;;;;;;;5116628;27;20206;-43
2021/03/11 04:20:23;;;;;;;36.87;27.70;;;;;;;;;;5113699;27;20204;-43
2021/03/11 04:22:48;;;;;;;34.60;25.13;;;;;;;;;;5111725;27;20547;-43
2021/03/11 04:25:13;;;;;;;36.57;27.90;;;;;;;;;;5110872;28;20283;-43
2021/03/11 04:27:38;;;;;;;40.33;26.50;;;;;;;;;;5119222;27;20597;-43
2021/03/11 04:30:05;;;;;;;38.47;27.50;;;;;;;;;;5112691;27;20183;-43
2021/03/11 04:32:30;;;;;;;36.67;26.80;;;;;;;;;;5111771;28;20177;-43
2021/03/11 04:34:55;;;;;;;37.60;28.33;;;;;;;;;;5110990;28;20598;-43
2021/03/11 04:37:21;;;;;;;39.40;29.00;;;;;;;;;;5111478;28;20182;-42
2021/03/11 04:39:46;;;;;;;37.53;29.20;;;;;;;;;;5110933;28;20745;-43
2021/03/11 04:42:11;;;;;;;39.27;29.30;;;;;;;;;;5110830;28;20781;-43
2021/03/11 04:44:37;;;;;;;37.10;28.00;;;;;;;;;;5106087;28;20174;-43
2021/03/11 04:47:02;;;;;;;39.83;28.53;;;;;;;;;;5108207;28;20169;-43
2021/03/11 04:49:29;;;;;;;41.17;30.67;;;;;;;;;;5109354;28;20205;-44
2021/03/11 04:51:54;;;;;;;42.57;31.13;;;;;;;;;;5108012;28;20558;-48
2021/03/11 04:54:20;;;;;;;39.13;29.13;;;;;;;;;;5107756;28;20657;-43
2021/03/11 04:56:46;;;;;;;42.70;32.20;;;;;;;;;;5106737;28;20190;-43
2021/03/11 04:59:11;;;;;;;38.63;29.90;;;;;;;;;;5107042;28;20202;-43
2021/03/11 05:01:40;;;;;;;39.80;28.77;;;;;;;;;;5107685;28;20199;-43
2021/03/11 05:04:05;;;;;;;40.43;30.07;;;;;;;;;;5107252;28;20179;-42
2021/03/11 05:06:31;;;;;;;41.37;29.03;;;;;;;;;;5108200;28;20940;-44
2021/03/11 05:08:56;;;;;;;37.47;28.13;;;;;;;;;;5105245;28;20676;-44
2021/03/11 05:11:21;;;;;;;39.85;29.63;;;;;;;;;;5110039;28;20169;-44
2021/03/11 05:13:46;;;;;;;43.72;31.30;;;;;;;;;;5109496;28;20171;-44
2021/03/11 05:16:11;;;;;;;44.00;31.80;;;;;;;;;;5108969;28;20189;-43
2021/03/11 05:18:36;;;;;;;43.00;31.13;;;;;;;;;;5107115;28;20648;-42
2021/03/11 05:21:02;;;;;;;44.50;31.93;;;;;;;;;;5109670;28;20246;-43
2021/03/11 05:23:27;;;;;;;42.37;30.33;;;;;;;;;;5109507;28;20687;-43
2021/03/11 05:25:53;;;;;;;42.57;31.90;;;;;;;;;;5102338;28;20189;-43
2021/03/11 05:28:19;;;;;;;37.73;29.40;;;;;;;;;;5107853;28;20178;-43
2021/03/11 05:30:44;;;;;;;39.57;28.33;;;;;;;;;;5101284;28;20219;-43
2021/03/11 05:33:09;;;;;;;36.00;28.80;;;;;;;;;;5108128;28;20603;-42
2021/03/11 05:35:34;;;;;;;43.17;29.77;;;;;;;;;;5108694;28;20174;-42
2021/03/11 05:38:03;;;;;;;38.07;27.17;;;;;;;;;;5102255;28;20174;-43
2021/03/11 05:40:29;;;;;;;38.13;26.57;;;;;;;;;;5103656;28;20575;-42
2021/03/11 05:42:56;;;;;;;36.67;26.33;;;;;;;;;;5105974;28;20580;-42
2021/03/11 05:45:21;;;;;;;38.30;27.27;;;;;;;;;;5105109;28;20199;-43
2021/03/11 05:47:47;;;;;;;34.97;25.70;;;;;;;;;;5105040;28;21364;-43
2021/03/11 05:50:13;;;;;;;36.37;28.23;;;;;;;;;;5103957;28;20197;-43
2021/03/11 05:52:38;;;;;;;38.40;27.37;;;;;;;;;;5107202;28;20170;-42
2021/03/11 05:55:04;;;;;;;38.17;27.20;;;;;;;;;;5105243;28;20675;-43
2021/03/11 05:57:30;;;;;;;32.80;24.67;;;;;;;;;;5105993;28;20186;-43
2021/03/11 05:59:55;;;;;;;33.60;26.17;;;;;;;;;;5106107;28;20627;-44
2021/03/11 06:02:24;;;;;;;33.87;24.97;;;;;;;;;;5095289;28;20181;-43
2021/03/11 06:04:51;;;;;;;37.90;25.57;;;;;;;;;;5098782;28;20257;-42
2021/03/11 06:07:16;;;;;;;31.03;23.50;;;;;;;;;;5105371;28;20599;-42
2021/03/11 06:09:41;;;;;;;33.93;25.10;;;;;;;;;;5106167;28;21112;-42
2021/03/11 06:12:08;;;;;;;36.00;25.77;;;;;;;;;;5105046;28;20184;-43
2021/03/11 06:14:35;;;;;;;35.23;26.00;;;;;;;;;;5106289;28;20178;-43
2021/03/11 06:17:03;;;;;;;37.13;26.80;;;;;;;;;;5105069;28;20679;-43
2021/03/11 06:19:28;;;;;;;34.60;26.43;;;;;;;;;;5105891;28;20688;-43
2021/03/11 06:21:54;;;;;;;34.50;24.60;;;;;;;;;;5108515;28;20575;-43
2021/03/11 06:24:21;;;;;;;36.60;27.23;;;;;;;;;;5107125;28;20223;-43
2021/03/11 06:26:46;;;;;;;34.83;25.40;;;;;;;;;;5106705;28;20632;-43
2021/03/11 06:29:11;;;;;;;35.08;24.48;;;;;;;;;;5105650;28;20607;-43
2021/03/11 06:31:39;;;;;;;32.28;24.42;;;;;;;;;;5109002;28;20624;-44
2021/03/11 06:34:17;;;;;;;29.87;23.03;;;;;;;;;;5109042;28;20239;-44
2021/03/11 06:36:43;;;;;;;32.87;25.03;;;;;;;;;;5108945;28;20596;-44
2021/03/11 06:39:21;;;;;;;32.00;24.00;;;;;;;;;;5107998;28;20642;-45
2021/03/11 06:41:47;;;;;;;35.47;26.37;;;;;;;;;;5108980;28;20577;-44
2021/03/11 06:44:12;;;;;;;35.87;26.03;;;;;;;;;;5108370;28;20603;-43
2021/03/11 06:46:37;;;;;;;38.90;27.03;;;;;;;;;;5108834;28;20173;-42
2021/03/11 06:49:05;;;;;;;36.60;27.70;;;;;;;;;;5108203;28;20510;-44
2021/03/11 06:51:31;;;;;;;35.30;27.67;;;;;;;;;;5108797;28;20256;-41
2021/03/11 06:53:59;;;;;;;43.23;30.20;;;;;;;;;;5108211;28;20647;-53
2021/03/11 06:56:26;;;;;;;39.00;29.07;;;;;;;;;;5108463;28;20196;-42
2021/03/11 06:58:58;;;;;;;43.13;29.53;;;;;;;;;;5105886;28;20638;-43
2021/03/11 07:01:24;;;;;;;41.07;28.53;;;;;;;;;;5108038;28;20592;-42
2021/03/11 07:03:50;;;;;;;42.30;30.57;;;;;;;;;;5109252;28;20568;-43
2021/03/11 07:06:25;;;;;;;42.37;29.70;;;;;;;;;;5105288;28;20608;-42
2021/03/11 07:08:50;;;;;;;44.10;31.47;;;;;;;;;;5115929;28;20256;-42
2021/03/11 07:11:16;;;;;;;41.67;29.20;;;;;;;;;;5108814;28;21070;-42
2021/03/11 07:13:42;;;;;;;43.17;30.10;;;;;;;;;;5115124;28;20173;-42
2021/03/11 07:16:27;;;;;;;45.67;30.07;;;;;;;;;;5116233;28;20374;-41
2021/03/11 07:19:11;;;;;;;47.17;30.40;;;;;;;;;;5114525;28;20212;-43
2021/03/11 07:21:43;;;;;;;48.20;32.57;;;;;;;;;;5108990;28;20604;-43
2021/03/11 07:24:09;;;;;;;42.00;29.97;;;;;;;;;;5108402;28;20615;-43
2021/03/11 07:26:34;;;;;;;46.70;31.00;;;;;;;;;;5109021;28;20595;-44
2021/03/11 07:29:16;;;;;;;44.03;31.37;;;;;;;;;;5108322;28;20166;-44
2021/03/11 07:31:41;;;;;;;42.87;30.37;;;;;;;;;;5105960;28;20177;-43
2021/03/11 07:34:06;;;;;;;41.08;30.42;;;;;;;;;;5111034;28;20600;-43
2021/03/11 07:36:31;;;;;;;40.10;29.50;;;;;;;;;;5112923;28;20184;-43
2021/03/11 07:38:56;;;;;;;42.90;29.40;;;;;;;;;;5111846;28;20246;-43
2021/03/11 07:41:22;;;;;;;39.87;28.50;;;;;;;;;;5111803;27;20229;-43
2021/03/11 07:43:47;;;;;;;42.57;30.60;;;;;;;;;;5113163;28;20192;-43
2021/03/11 07:46:14;;;;;;;46.10;31.80;;;;;;;;;;5110960;28;20170;-43
2021/03/11 07:48:39;;;;;;;44.90;30.20;;;;;;;;;;5099472;28;20178;-43
2021/03/11 07:51:04;;;;;;;40.20;28.97;;;;;;;;;;5109162;28;20596;-44
2021/03/11 07:53:29;;;;;;;44.23;28.87;;;;;;;;;;5111832;28;20182;-44
2021/03/11 07:55:55;;;;;;;40.93;27.93;;;;;;;;;;5111043;28;20205;-43
2021/03/11 07:58:23;;;;;;;36.60;26.90;;;;;;;;;;5110859;28;20206;-44
2021/03/11 08:00:49;;;;;;;40.17;28.30;;;;;;;;;;5112810;27;20636;-41
2021/03/11 08:03:20;;;;;;;40.57;28.47;;;;;;;;;;5116241;27;20721;-42
2021/03/11 08:05:45;;;;;;;36.77;26.20;;;;;;;;;;5110524;27;20184;-42
2021/03/11 08:08:16;;;;;;;32.67;26.60;;;;;;;;;;5110106;28;20671;-42
2021/03/11 08:10:44;;;;;;;35.00;27.57;;;;;;;;;;5111814;28;20612;-43
2021/03/11 08:13:25;;;;;;;34.73;26.37;;;;;;;;;;5111930;28;20700;-43
2021/03/11 08:15:51;;;;;;;35.50;27.27;;;;;;;;;;5111399;28;20606;-44
2021/03/11 08:18:42;;;;;;;33.17;25.33;;;;;;;;;;5111474;28;21177;-43
2021/03/11 08:21:22;;;;;;;32.47;24.77;;;;;;;;;;5108423;28;20679;-43
2021/03/11 08:23:48;;;;;;;31.50;23.80;;;;;;;;;;5111459;28;21163;-44
2021/03/11 08:26:33;;;;;;;36.80;26.17;;;;;;;;;;5111260;28;20685;-42
2021/03/11 08:28:58;;;;;;;33.40;26.07;;;;;;;;;;5111434;28;20181;-46
2021/03/11 08:31:29;;;;;;;33.57;24.77;;;;;;;;;;5111465;28;20583;-43
2021/03/11 08:33:55;;;;;;;30.97;24.70;;;;;;;;;;5111643;28;20171;-43
2021/03/11 08:36:24;;;;;;;33.43;25.13;;;;;;;;;;5111214;27;20603;-43
2021/03/11 08:38:50;;;;;;;37.23;27.60;;;;;;;;;;5111208;28;20205;-43
2021/03/11 08:41:25;;;;;;;34.23;25.43;;;;;;;;;;5111031;28;21418;-42
2021/03/11 08:43:51;;;;;;;36.37;25.40;;;;;;;;;;5112667;27;20606;-42
2021/03/11 08:46:17;;;;;;;34.40;26.23;;;;;;;;;;5110892;28;20591;-43
2021/03/11 08:48:43;;;;;;;34.37;25.67;;;;;;;;;;5111128;28;20541;-42
2021/03/11 08:51:32;;;;;;;31.40;25.07;;;;;;;;;;5110865;28;20577;-42
2021/03/11 08:54:01;;;;;;;31.97;25.90;;;;;;;;;;5099780;28;20661;-44
2021/03/11 08:56:26;;;;;;;30.80;25.00;;;;;;;;;;5111141;28;20588;-44
2021/03/11 08:58:51;;;;;;;31.92;25.02;;;;;;;;;;5110623;28;20727;-44
2021/03/11 09:01:40;;;;;;;37.88;26.52;;;;;;;;;;5110185;28;20227;-44
2021/03/11 09:04:06;;;;;;;35.80;29.23;;;;;;;;;;5099674;28;20204;-43
2021/03/11 09:06:54;;;;;;;33.90;26.97;;;;;;;;;;5090758;28;20577;-43
2021/03/11 09:09:39;;;;;;;34.77;27.00;;;;;;;;;;5096941;28;20604;-43
2021/03/11 09:12:06;;;;;;;32.10;26.53;;;;;;;;;;5110397;28;20602;-44
2021/03/11 09:14:32;;;;;;;34.90;27.40;;;;;;;;;;5110143;28;20741;-42
2021/03/11 09:17:13;;;;;;;34.27;27.30;;;;;;;;;;5110541;28;20803;-43
2021/03/11 09:19:38;;;;;;;38.83;28.03;;;;;;;;;;5110396;28;20212;-42
2021/03/11 09:22:15;;;;;;;34.45;26.35;;;;;;;;;;5109638;28;20596;-42
2021/03/11 09:24:41;;;;;;;36.57;27.53;;;;;;;;;;5110188;28;20575;-41
2021/03/11 09:27:06;;;;;;;36.13;26.70;;;;;;;;;;5110464;28;20575;-43
2021/03/11 09:29:31;;;;;;;38.20;30.20;;;;;;;;;;5110692;28;20200;-42
2021/03/11 09:31:56;;;;;;;35.47;27.40;;;;;;;;;;5110293;28;20805;-43
2021/03/11 09:34:21;;;;;;;39.20;29.03;;;;;;;;;;5110129;28;20190;-43
2021/03/11 09:36:47;;;;;;;39.22;28.02;;;;;;;;;;5109694;28;20174;-43
2021/03/11 09:39:12;;;;;;;39.47;30.00;;;;;;;;;;5109536;28;20198;-43
2021/03/11 09:41:38;;;;;;;37.00;29.17;;;;;;;;;;5110176;28;20583;-43
2021/03/11 09:44:04;;;;;;;39.53;28.97;;;;;;;;;;5110216;28;20663;-43
2021/03/11 09:46:29;;;;;;;35.97;29.50;;;;;;;;;;5109670;28;20635;-42
2021/03/11 09:48:56;;;;;;;36.57;29.03;;;;;;;;;;5110079;28;20219;-43
2021/03/11 09:51:21;;;;;;;35.93;27.37;;;;;;;;;;5109594;28;20201;-44
2021/03/11 09:53:48;;;;;;;31.63;25.90;;;;;;;;;;5109085;28;20980;-43
2021/03/11 09:56:18;;;;;;;36.30;29.03;;;;;;;;;;5109628;28;20265;-43
2021/03/11 09:58:44;;;;;;;37.30;28.30;;;;;;;;;;5109241;28;21243;-44
2021/03/11 10:01:09;;;;;;;35.50;27.67;;;;;;;;;;5110117;28;20592;-44
2021/03/11 10:03:35;;;;;;;38.80;27.50;;;;;;;;;;5109396;28;20950;-44
2021/03/11 10:06:01;;;;;;;35.70;27.93;;;;;;;;;;5109203;28;20183;-44
2021/03/11 10:08:27;;;;;;;38.13;28.07;;;;;;;;;;5109741;28;20170;-44
2021/03/11 10:10:58;;;;;;;36.65;29.08;;;;;;;;;;5109192;28;20615;-44
2021/03/11 10:13:33;;;;;;;36.63;30.00;;;;;;;;;;5109302;28;20652;-44
2021/03/11 10:15:58;;;;;;;61.87;46.20;;;;;;;;;;5109202;28;20607;-43
2021/03/11 10:18:24;;;;;;;65.43;49.93;;;;;;;;;;5108418;28;21207;-44
2021/03/11 10:20:58;;;;;;;80.97;55.93;;;;;;;;;;5109563;28;20166;-43
2021/03/11 10:23:23;;;;;;;80.40;58.00;;;;;;;;;;5109300;28;20164;-43
2021/03/11 10:26:07;;;;;;;77.83;59.47;;;;;;;;;;5109611;28;20601;-45
2021/03/11 10:28:32;;;;;;;78.90;59.93;;;;;;;;;;5108632;28;20541;-44
2021/03/11 10:30:57;;;;;;;68.70;52.93;;;;;;;;;;5109283;28;20560;-42
2021/03/11 10:33:22;;;;;;;61.15;48.72;;;;;;;;;;5108837;28;20325;-43
2021/03/11 10:35:49;;;;;;;54.80;41.40;;;;;;;;;;5108934;28;20172;-43
2021/03/11 10:38:18;;;;;;;50.20;40.13;;;;;;;;;;5108675;28;20179;-44
2021/03/11 10:40:44;;;;;;;44.17;35.03;;;;;;;;;;5108882;28;20631;-43
2021/03/11 10:43:19;;;;;;;46.07;39.33;;;;;;;;;;5108829;28;20722;-43
2021/03/11 10:45:45;;;;;;;55.37;43.27;;;;;;;;;;5108829;28;20172;-43
2021/03/11 10:48:10;;;;;;;52.20;42.27;;;;;;;;;;5108988;28;20607;-44
2021/03/11 10:50:40;;;;;;;44.43;37.60;;;;;;;;;;5109249;28;20181;-43
2021/03/11 10:53:06;;;;;;;35.33;31.47;;;;;;;;;;5108578;28;20264;-47
2021/03/11 10:55:33;;;;;;;36.17;29.60;;;;;;;;;;5108064;28;21484;-44
2021/03/11 10:57:58;;;;;;;33.50;28.40;;;;;;;;;;5109158;28;20187;-44
2021/03/11 11:00:24;;;;;;;34.47;27.27;;;;;;;;;;5108375;28;20650;-43
2021/03/11 11:02:53;;;;;;;30.40;26.43;;;;;;;;;;5108661;28;20264;-44
2021/03/11 11:05:19;;;;;;;31.00;26.67;;;;;;;;;;5108990;28;20581;-43
2021/03/11 11:07:44;;;;;;;30.60;26.70;;;;;;;;;;5112488;28;20645;-44
2021/03/11 11:10:09;;;;;;;34.13;27.67;;;;;;;;;;5112556;28;20181;-43
2021/03/11 11:12:34;;;;;;;31.67;26.37;;;;;;;;;;5112622;28;20203;-44
2021/03/11 11:15:00;;;;;;;33.58;27.55;;;;;;;;;;5112903;28;20233;-44
2021/03/11 11:17:25;;;;;;;38.92;29.10;;;;;;;;;;5112747;28;20635;-43
2021/03/11 11:19:50;;;;;;;34.57;29.27;;;;;;;;;;5112638;28;20197;-43
2021/03/11 11:22:15;;;;;;;36.80;29.60;;;;;;;;;;5112537;28;20233;-44
2021/03/11 11:24:40;;;;;;;38.90;29.80;;;;;;;;;;5093791;28;20276;-44
2021/03/11 11:27:13;;;;;;;39.23;31.10;;;;;;;;;;5112608;28;20641;-44
2021/03/11 11:29:39;;;;;;;41.43;32.80;;;;;;;;;;5113123;28;20175;-44
2021/03/11 11:32:05;;;;;;;44.40;34.13;;;;;;;;;;5112622;28;21109;-44
2021/03/11 11:34:30;;;;;;;45.40;35.70;;;;;;;;;;5112528;27;20199;-44
2021/03/11 11:36:55;;;;;;;62.27;47.30;;;;;;;;;;5112304;28;21199;-45
2021/03/11 11:39:20;;;;;;;72.13;56.03;;;;;;;;;;5112187;28;20197;-44
2021/03/11 11:41:48;;;;;;;72.20;54.92;;;;;;;;;;5112663;28;20166;-44
2021/03/11 11:44:13;;;;;;;71.93;54.93;;;;;;;;;;5112206;28;20248;-43
2021/03/11 11:46:40;;;;;;;75.87;55.47;;;;;;;;;;5112660;28;21059;-43
2021/03/11 11:49:05;;;;;;;69.07;53.57;;;;;;;;;;5111813;28;20232;-43
2021/03/11 11:51:31;;;;;;;73.13;54.70;;;;;;;;;;5112160;28;20602;-43
2021/03/11 11:53:56;;;;;;;72.53;54.60;;;;;;;;;;5111849;28;20233;-46
2021/03/11 11:56:21;;;;;;;65.77;51.20;;;;;;;;;;5111905;28;20871;-43
2021/03/11 11:58:47;;;;;;;69.60;51.80;;;;;;;;;;5112088;28;20201;-45
2021/03/11 12:01:12;;;;;;;58.80;46.70;;;;;;;;;;5111999;28;20173;-45
2021/03/11 12:03:37;;;;;;;58.70;47.07;;;;;;;;;;5111757;28;20650;-44
2021/03/11 12:06:03;;;;;;;56.40;43.47;;;;;;;;;;5111752;28;20259;-43
2021/03/11 12:08:28;;;;;;;51.00;40.87;;;;;;;;;;5111851;28;20180;-44
2021/03/11 12:10:55;;;;;;;47.53;39.17;;;;;;;;;;5111299;28;20652;-44
2021/03/11 12:13:20;;;;;;;47.40;38.30;;;;;;;;;;5111419;28;20180;-44
2021/03/11 12:15:45;;;;;;;52.67;42.03;;;;;;;;;;5111929;28;20602;-43
2021/03/11 12:18:10;;;;;;;52.23;41.87;;;;;;;;;;5111072;28;20173;-43
2021/03/11 12:20:35;;;;;;;54.90;41.93;;;;;;;;;;5111820;28;20207;-43
2021/03/11 12:23:02;;;;;;;55.90;40.60;;;;;;;;;;5111471;28;20670;-43
2021/03/11 12:25:27;;;;;;;51.40;38.00;;;;;;;;;;5111372;28;20173;-45
2021/03/11 12:27:52;;;;;;;41.60;36.00;;;;;;;;;;5111213;28;20587;-43
2021/03/11 12:30:17;;;;;;;43.10;35.80;;;;;;;;;;5111504;28;20175;-43
2021/03/11 12:32:43;;;;;;;47.97;37.37;;;;;;;;;;5110846;28;20182;-43
2021/03/11 12:35:08;;;;;;;42.10;36.33;;;;;;;;;;5111190;28;20188;-43
2021/03/11 12:37:33;;;;;;;42.97;34.13;;;;;;;;;;5111367;28;20177;-47
2021/03/11 12:39:58;;;;;;;42.97;33.67;;;;;;;;;;5111182;28;20265;-43
2021/03/11 12:42:24;;;;;;;41.60;33.50;;;;;;;;;;5110980;28;20183;-43
2021/03/11 12:44:49;;;;;;;35.60;29.90;;;;;;;;;;5111092;28;20289;-43
2021/03/11 12:47:15;;;;;;;38.00;33.37;;;;;;;;;;5111231;28;20263;-43
2021/03/11 12:49:40;;;;;;;37.27;31.43;;;;;;;;;;5111143;28;20169;-44
2021/03/11 12:52:05;;;;;;;40.15;33.45;;;;;;;;;;5111341;28;21407;-43
2021/03/11 12:54:31;;;;;;;37.63;31.60;;;;;;;;;;5110605;28;20312;-43
2021/03/11 12:56:56;;;;;;;36.17;32.23;;;;;;;;;;5110655;28;20178;-43
2021/03/11 12:59:21;;;;;;;38.15;32.85;;;;;;;;;;5110600;28;20332;-44
2021/03/11 13:01:46;;;;;;;40.27;32.10;;;;;;;;;;5111171;28;20170;-42
2021/03/11 13:04:11;;;;;;;39.83;33.57;;;;;;;;;;5110427;28;20267;-43
2021/03/11 13:06:36;;;;;;;40.92;33.65;;;;;;;;;;5111145;28;20174;-47
2021/03/11 13:09:02;;;;;;;36.47;30.73;;;;;;;;;;5110607;28;20512;-45
2021/03/11 13:11:27;;;;;;;34.47;30.13;;;;;;;;;;5110681;28;20179;-43
2021/03/11 13:13:52;;;;;;;33.93;28.90;;;;;;;;;;5110282;28;20646;-43
2021/03/11 13:16:17;;;;;;;35.23;28.77;;;;;;;;;;5110387;28;20185;-42
2021/03/11 13:18:44;;;;;;;33.53;29.47;;;;;;;;;;5110742;28;20200;-43
2021/03/11 13:21:10;;;;;;;32.33;28.83;;;;;;;;;;5110519;28;20547;-44
2021/03/11 13:23:35;;;;;;;34.03;29.90;;;;;;;;;;5110506;28;20702;-43
2021/03/11 13:26:00;;;;;;;34.20;30.30;;;;;;;;;;5110080;28;20176;-44
2021/03/11 13:28:25;;;;;;;32.28;28.83;;;;;;;;;;5109962;28;20201;-44
2021/03/11 13:30:52;;;;;;;32.72;29.25;;;;;;;;;;5109889;28;20634;-44
2021/03/11 13:33:17;;;;;;;32.70;28.40;;;;;;;;;;5109789;28;20570;-43
2021/03/11 13:35:42;;;;;;;32.10;28.73;;;;;;;;;;5110704;28;20595;-44
2021/03/11 13:38:07;;;;;;;33.23;29.10;;;;;;;;;;5110240;28;20172;-43
2021/03/11 13:40:33;;;;;;;33.97;29.95;;;;;;;;;;5109507;28;20738;-43
2021/03/11 13:43:01;;;;;;;32.87;28.63;;;;;;;;;;5110292;28;20636;-43
2021/03/11 13:45:27;;;;;;;33.37;28.90;;;;;;;;;;5109656;28;20170;-44
2021/03/11 13:47:52;;;;;;;33.80;30.10;;;;;;;;;;5091687;28;20598;-44
2021/03/11 13:50:17;;;;;;;33.03;29.43;;;;;;;;;;5109300;28;20172;-44
2021/03/11 13:52:42;;;;;;;33.90;28.50;;;;;;;;;;5110284;28;20617;-44
2021/03/11 13:55:08;;;;;;;35.53;31.10;;;;;;;;;;5109078;28;20228;-44
2021/03/11 13:57:33;;;;;;;33.10;29.50;;;;;;;;;;5109043;28;20528;-44
2021/03/11 13:59:59;;;;;;;33.80;29.43;;;;;;;;;;5109579;28;20689;-44
2021/03/11 14:02:24;;;;;;;31.42;28.02;;;;;;;;;;5109743;28;20176;-44
2021/03/11 14:04:49;;;;;;;35.13;31.03;;;;;;;;;;5109907;28;20168;-44
2021/03/11 14:07:14;;;;;;;35.77;30.30;;;;;;;;;;5109762;28;20167;-44
2021/03/11 14:09:40;;;;;;;33.93;29.27;;;;;;;;;;5109010;28;20176;-44
2021/03/11 14:12:05;;;;;;;31.53;27.87;;;;;;;;;;5108462;28;20181;-44
2021/03/11 14:14:30;;;;;;;33.80;29.10;;;;;;;;;;5109648;28;20195;-42